createdAt,value
2024-04-12T00:01:06.183Z,99.85
2024-04-12T00:04:10.272Z,99.64
2024-04-12T00:07:17.066Z,99.57
2024-04-12T00:10:20.890Z,99.99
2024-04-12T00:13:24.308Z,99.98
2024-04-12T00:16:26.405Z,99.81
2024-04-12T00:19:31.411Z,99.75
2024-04-12T00:22:33.872Z,100.00
2024-04-12T00:25:36.591Z,100.00
2024-04-12T00:28:38.718Z,100.00
2024-04-12T00:31:43.692Z,100.00
2024-04-12T00:34:49.922Z,100.00
2024-04-12T00:37:54.988Z,100.00
2024-04-12T00:41:01.438Z,100.00
2024-04-12T00:44:06.790Z,100.00
2024-04-12T00:47:12.005Z,100.00
2024-04-12T00:50:17.739Z,100.00
2024-04-12T00:53:24.039Z,100.00
2024-04-12T00:56:30.593Z,100.00
2024-04-12T00:59:33.267Z,100.00
2024-04-12T01:02:35.041Z,100.00
2024-04-12T01:05:39.674Z,100.00
2024-04-12T01:08:41.725Z,100.00
2024-04-12T01:11:45.127Z,100.00
2024-04-12T01:14:50.762Z,100.00
2024-04-12T01:17:53.445Z,100.00
2024-04-12T01:20:55.348Z,100.00
2024-04-12T01:23:57.558Z,100.00
2024-04-12T01:26:59.703Z,100.00
2024-04-12T01:30:02.811Z,100.00
2024-04-12T01:33:07.938Z,100.00
2024-04-12T01:36:12.611Z,100.00
2024-04-12T01:39:14.409Z,100.00
2024-04-12T01:42:19.549Z,100.00
2024-04-12T01:45:29.278Z,100.00
2024-04-12T01:48:34.961Z,100.00
2024-04-12T01:51:41.804Z,100.00
2024-04-12T01:55:04.943Z,100.00
2024-04-12T01:58:07.062Z,100.00
2024-04-12T02:01:12.799Z,100.00
2024-04-12T02:04:19.644Z,100.00
2024-04-12T02:07:28.287Z,100.00
2024-04-12T02:10:30.779Z,100.00
2024-04-12T02:13:39.676Z,100.00
2024-04-12T02:16:43.173Z,100.00
2024-04-12T02:19:48.560Z,100.00
2024-04-12T02:22:51.046Z,100.00
2024-04-12T02:25:53.001Z,100.00
2024-04-12T02:29:00.640Z,100.00
2024-04-12T02:32:02.467Z,100.00
2024-04-12T02:35:05.142Z,100.00
2024-04-12T02:38:07.254Z,100.00
2024-04-12T02:41:16.626Z,100.00
2024-04-12T02:44:19.094Z,100.00
2024-04-12T02:47:21.307Z,100.00
2024-04-12T02:50:24.935Z,100.00
2024-04-12T02:53:28.139Z,100.00
2024-04-12T02:56:33.215Z,100.00
2024-04-12T02:59:35.762Z,100.00
2024-04-12T03:02:38.444Z,100.00
2024-04-12T03:05:42.238Z,100.00
2024-04-12T03:08:49.068Z,100.00
2024-04-12T03:11:52.030Z,100.00
2024-04-12T03:14:55.874Z,100.00
2024-04-12T03:17:58.662Z,100.00
2024-04-12T03:21:01.138Z,100.00
2024-04-12T03:24:06.200Z,100.00
2024-04-12T03:27:07.966Z,100.00
2024-04-12T03:30:15.912Z,100.00
2024-04-12T03:33:18.509Z,100.00
2024-04-12T03:36:28.366Z,100.00
2024-04-12T03:39:35.439Z,100.00
2024-04-12T03:42:42.954Z,100.00
2024-04-12T03:45:49.008Z,100.00
2024-04-12T03:48:54.810Z,100.00
2024-04-12T03:51:58.164Z,100.00
2024-04-12T03:55:10.458Z,100.00
2024-04-12T03:58:18.767Z,100.00
2024-04-12T04:01:21.192Z,100.00
2024-04-12T04:04:26.935Z,100.00
2024-04-12T04:07:28.817Z,100.00
2024-04-12T04:10:31.564Z,100.00
2024-04-12T04:13:35.334Z,100.00
2024-04-12T04:16:37.990Z,100.00
2024-04-12T04:19:43.913Z,100.00
2024-04-12T04:22:50.982Z,100.00
2024-04-12T04:25:56.419Z,100.00
2024-04-12T04:29:02.430Z,100.00
2024-04-12T04:32:05.251Z,100.00
2024-04-12T04:35:10.472Z,100.00
2024-04-12T04:38:15.962Z,100.00
2024-04-12T04:41:22.049Z,100.00
2024-04-12T04:44:25.845Z,100.00
2024-04-12T04:47:29.988Z,100.00
2024-04-12T04:50:32.010Z,100.00
2024-04-12T04:53:35.151Z,100.00
2024-04-12T04:56:36.894Z,100.00
2024-04-12T04:59:39.243Z,100.00
2024-04-12T05:02:44.125Z,100.00
2024-04-12T05:05:51.344Z,100.00
2024-04-12T05:08:56.425Z,100.00
2024-04-12T05:12:01.700Z,100.00
2024-04-12T05:15:37.925Z,100.00
2024-04-12T05:18:39.916Z,100.00
2024-04-12T05:21:43.371Z,100.00
2024-04-12T05:24:45.113Z,100.00
2024-04-12T05:27:46.823Z,100.00
2024-04-12T05:30:52.028Z,100.00
2024-04-12T05:33:57.343Z,100.00
2024-04-12T05:37:06.880Z,100.00
2024-04-12T05:40:14.152Z,100.00
2024-04-12T05:43:16.499Z,100.00
2024-04-12T05:46:18.701Z,100.00
2024-04-12T05:49:21.638Z,100.00
2024-04-12T05:52:24.299Z,100.00
2024-04-12T05:55:28.099Z,100.00
2024-04-12T05:58:31.135Z,100.00
2024-04-12T06:01:34.815Z,100.00
2024-04-12T06:04:37.918Z,100.00
2024-04-12T06:07:42.330Z,100.00
2024-04-12T06:10:45.833Z,100.00
2024-04-12T06:13:53.565Z,100.00
2024-04-12T06:16:59.061Z,100.00
2024-04-12T06:20:01.390Z,100.00
2024-04-12T06:23:12.229Z,100.00
2024-04-12T06:26:13.959Z,100.00
2024-04-12T06:32:25.438Z,100.00
2024-04-12T06:35:29.939Z,100.00
2024-04-12T06:38:33.290Z,100.00
2024-04-12T06:41:35.298Z,100.00
2024-04-12T06:44:37.629Z,100.00
2024-04-12T06:47:43.042Z,100.00
2024-04-12T06:50:58.212Z,100.00
2024-04-12T06:54:02.934Z,100.00
2024-04-12T06:57:05.847Z,100.00
2024-04-12T07:00:08.756Z,100.00
2024-04-12T07:03:17.132Z,100.00
2024-04-12T07:06:19.850Z,100.00
2024-04-12T07:09:24.205Z,100.00
2024-04-12T07:12:32.636Z,100.00
2024-04-12T07:15:35.276Z,100.00
2024-04-12T07:18:37.555Z,100.00
2024-04-12T07:21:39.850Z,100.00
2024-04-12T07:24:43.537Z,100.00
2024-04-12T07:27:49.459Z,100.00
2024-04-12T07:30:53.818Z,100.00
2024-04-12T07:34:01.167Z,100.00
2024-04-12T07:37:07.899Z,100.00
2024-04-12T07:40:26.004Z,100.00
2024-04-12T07:43:31.234Z,100.00
2024-04-12T07:46:38.305Z,100.00
2024-04-12T07:49:49.707Z,99.48
2024-04-12T07:52:52.421Z,97.72
2024-04-12T07:56:16.478Z,96.99
2024-04-12T07:59:26.413Z,97.46
2024-04-12T08:02:32.166Z,97.01
2024-04-12T08:05:55.720Z,95.70
2024-04-12T08:09:22.380Z,94.67
2024-04-12T08:12:25.583Z,93.40
2024-04-12T08:15:27.494Z,92.91
2024-04-12T08:18:29.756Z,92.97
2024-04-12T08:21:39.568Z,92.18
2024-04-12T08:24:42.754Z,90.32
2024-04-12T08:27:45.022Z,89.84
2024-04-12T08:30:53.655Z,89.59
2024-04-12T08:33:58.975Z,87.29
2024-04-12T08:37:04.304Z,87.19
2024-04-12T08:40:10.913Z,86.88
2024-04-12T08:46:24.039Z,85.33
2024-04-12T08:49:30.290Z,83.71
2024-04-12T08:52:49.992Z,85.83
2024-04-12T08:55:51.774Z,85.49
2024-04-12T08:58:56.762Z,85.86
2024-04-12T09:01:59.569Z,85.06
2024-04-12T09:05:01.732Z,84.13
2024-04-12T09:08:08.101Z,84.39
2024-04-12T09:11:12.469Z,83.49
2024-04-12T09:14:21.645Z,82.73
2024-04-12T09:17:29.869Z,81.37
2024-04-12T09:20:36.332Z,81.76
2024-04-12T09:23:42.408Z,79.23
2024-04-12T09:27:00.618Z,79.24
2024-04-12T09:30:22.966Z,77.80
2024-04-12T09:33:29.153Z,75.69
2024-04-12T09:36:53.632Z,75.16
2024-04-12T09:40:03.535Z,76.20
2024-04-12T09:43:16.012Z,75.24
2024-04-12T09:46:24.996Z,74.91
2024-04-12T09:49:46.573Z,74.96
2024-04-12T09:53:08.842Z,73.66
2024-04-12T09:56:34.784Z,72.89
2024-04-12T10:00:06.921Z,73.30
2024-04-12T10:03:37.434Z,73.41
2024-04-12T10:06:58.500Z,72.88
2024-04-12T10:10:19.513Z,72.46
2024-04-12T10:14:00.638Z,73.00
2024-04-12T10:17:21.198Z,71.59
2024-04-12T10:20:42.847Z,72.11
2024-04-12T10:24:04.568Z,70.53
2024-04-12T10:27:25.990Z,70.29
2024-04-12T10:30:47.360Z,70.70
2024-04-12T10:34:28.002Z,70.01
2024-04-12T10:37:30.956Z,68.26
2024-04-12T10:40:32.783Z,68.83
2024-04-12T10:43:43.142Z,67.03
2024-04-12T10:46:46.502Z,65.73
2024-04-12T10:49:48.751Z,66.56
2024-04-12T10:52:56.941Z,66.39
2024-04-12T10:56:04.207Z,66.37
2024-04-12T10:59:07.843Z,66.41
2024-04-12T11:02:13.915Z,66.39
2024-04-12T11:05:19.571Z,65.81
2024-04-12T11:08:26.354Z,66.18
2024-04-12T11:11:35.602Z,65.35
2024-04-12T11:14:39.929Z,66.03
2024-04-12T11:18:01.574Z,65.62
2024-04-12T11:21:23.067Z,65.02
2024-04-12T11:24:43.476Z,63.98
2024-04-12T11:28:04.538Z,63.05
2024-04-12T11:31:21.631Z,62.14
2024-04-12T11:34:31.932Z,62.19
2024-04-12T11:37:45.181Z,62.75
2024-04-12T11:40:50.052Z,61.81
2024-04-12T11:43:53.398Z,60.96
2024-04-12T11:46:58.151Z,60.83
2024-04-12T11:50:11.529Z,61.29
2024-04-12T11:53:17.149Z,60.65
2024-04-12T11:56:19.610Z,58.91
2024-04-12T11:59:32.209Z,58.29
2024-04-12T12:02:49.530Z,58.37
2024-04-12T12:05:57.771Z,57.76
2024-04-12T12:09:13.529Z,58.71
2024-04-12T12:12:17.775Z,58.44
2024-04-12T12:15:21.249Z,57.66
2024-04-12T12:18:24.944Z,57.49
2024-04-12T12:21:29.776Z,57.97
2024-04-12T12:24:32.612Z,57.20
2024-04-12T12:27:35.387Z,57.07
2024-04-12T12:30:37.519Z,56.65
2024-04-12T12:33:42.431Z,55.46
2024-04-12T12:36:46.084Z,55.45
2024-04-12T12:39:49.391Z,55.17
2024-04-12T12:42:54.027Z,55.03
2024-04-12T12:45:58.611Z,54.41
2024-04-12T12:49:01.021Z,54.15
2024-04-12T12:52:02.961Z,54.73
2024-04-12T12:55:06.813Z,54.46
2024-04-12T12:58:12.052Z,54.01
2024-04-12T13:01:17.707Z,53.11
2024-04-12T13:04:20.586Z,52.96
2024-04-12T13:07:23.562Z,52.58
2024-04-12T13:10:25.482Z,52.61
2024-04-12T13:13:27.897Z,53.33
2024-04-12T13:16:30.495Z,53.40
2024-04-12T13:19:32.629Z,52.89
2024-04-12T13:22:34.483Z,52.25
2024-04-12T13:25:39.292Z,53.54
2024-04-12T13:28:42.175Z,52.97
2024-04-12T13:31:46.044Z,53.12
2024-04-12T13:34:48.470Z,53.17
2024-04-12T13:37:50.585Z,53.44
2024-04-12T13:40:55.897Z,53.19
2024-04-12T13:43:59.705Z,52.94
2024-04-12T13:47:28.571Z,51.96
2024-04-12T13:50:49.235Z,51.14
2024-04-12T13:53:51.698Z,51.11
2024-04-12T13:56:57.760Z,50.52
2024-04-12T14:00:01.194Z,50.62
2024-04-12T14:03:08.400Z,49.79
2024-04-12T14:06:11.678Z,48.28
2024-04-12T14:09:15.004Z,48.10
2024-04-12T14:12:17.045Z,47.65
2024-04-12T14:15:24.542Z,45.88
2024-04-12T14:18:27.633Z,46.29
2024-04-12T14:21:30.022Z,45.81
2024-04-12T14:24:51.490Z,45.02
2024-04-12T14:27:54.454Z,44.75
2024-04-12T14:30:56.962Z,45.12
2024-04-12T14:33:58.825Z,43.92
2024-04-12T14:37:01.087Z,43.69
2024-04-12T14:40:08.303Z,43.17
2024-04-12T14:43:10.596Z,42.10
2024-04-12T14:46:12.767Z,40.84
2024-04-12T14:49:14.667Z,41.17
2024-04-12T14:52:17.446Z,41.21
2024-04-12T14:55:19.793Z,40.18
2024-04-12T14:58:21.821Z,40.22
2024-04-12T15:01:25.320Z,40.16
2024-04-12T15:04:46.102Z,38.81
2024-04-12T15:08:07.120Z,39.85
2024-04-12T15:11:27.751Z,37.65
2024-04-12T15:14:48.130Z,37.27
2024-04-12T15:18:08.919Z,38.07
2024-04-12T15:21:30.058Z,38.79
2024-04-12T15:24:50.399Z,38.41
2024-04-12T15:28:11.042Z,38.22
2024-04-12T15:31:32.320Z,37.80
2024-04-12T15:34:52.994Z,37.59
2024-04-12T15:38:13.354Z,37.61
2024-04-12T15:41:33.865Z,37.99
2024-04-12T15:44:54.846Z,37.67
2024-04-12T15:47:57.214Z,38.06
2024-04-12T15:51:02.441Z,37.88
2024-04-12T15:54:08.935Z,38.27
2024-04-12T15:57:29.342Z,37.32
2024-04-12T16:01:04.102Z,37.86
2024-04-12T16:04:25.613Z,37.09
2024-04-12T16:07:46.549Z,38.06
2024-04-12T16:10:52.028Z,37.84
2024-04-12T16:13:54.211Z,38.11
2024-04-12T16:16:55.956Z,38.74
2024-04-12T16:19:57.758Z,39.23
2024-04-12T16:22:59.760Z,39.39
2024-04-12T16:26:04.202Z,40.36
2024-04-12T16:29:10.894Z,40.87
2024-04-12T16:32:15.426Z,41.68
2024-04-12T16:35:18.296Z,41.51
2024-04-12T16:38:20.982Z,40.84
2024-04-12T16:41:23.995Z,40.55
2024-04-12T16:44:27.435Z,41.13
2024-04-12T16:47:29.464Z,41.07
2024-04-12T16:50:33.248Z,40.44
2024-04-12T16:53:37.238Z,40.60
2024-04-12T16:56:38.977Z,40.28
2024-04-12T16:59:40.759Z,40.52
2024-04-12T17:02:42.941Z,40.57
2024-04-12T17:05:48.828Z,41.35
2024-04-12T17:08:51.040Z,41.66
2024-04-12T17:11:52.760Z,42.28
2024-04-12T17:14:55.057Z,42.27
2024-04-12T17:17:57.778Z,42.61
2024-04-12T17:21:00.616Z,42.71
2024-04-12T17:24:04.118Z,43.17
2024-04-12T17:27:06.685Z,43.23
2024-04-12T17:30:10.057Z,44.00
2024-04-12T17:33:11.907Z,44.36
2024-04-12T17:36:13.833Z,43.84
2024-04-12T17:39:15.628Z,43.50
2024-04-12T17:42:17.930Z,42.62
2024-04-12T17:45:20.064Z,42.34
2024-04-12T17:48:22.554Z,42.08
2024-04-12T17:51:25.325Z,42.63
2024-04-12T17:54:27.740Z,43.68
2024-04-12T17:57:30.841Z,44.46
2024-04-12T18:00:35.445Z,44.86
2024-04-12T18:03:39.130Z,45.34
2024-04-12T18:06:44.050Z,46.86
2024-04-12T18:09:47.155Z,47.38
2024-04-12T18:12:49.596Z,48.33
2024-04-12T18:15:51.318Z,48.54
2024-04-12T18:18:53.158Z,49.53
2024-04-12T18:21:56.821Z,50.37
2024-04-12T18:24:58.881Z,50.92
2024-04-12T18:28:00.592Z,52.48
2024-04-12T18:31:06.000Z,53.24
2024-04-12T18:34:11.497Z,53.44
2024-04-12T18:37:33.193Z,54.39
2024-04-12T18:40:54.190Z,55.58
2024-04-12T18:44:15.472Z,56.21
2024-04-12T18:47:19.210Z,57.32
2024-04-12T18:50:23.747Z,57.98
2024-04-12T18:53:25.848Z,58.49
2024-04-12T18:56:27.655Z,59.33
2024-04-12T18:59:31.162Z,59.96
2024-04-12T19:02:32.989Z,60.76
2024-04-12T19:05:39.169Z,61.45
2024-04-12T19:08:42.937Z,62.56
2024-04-12T19:11:46.393Z,63.15
2024-04-12T19:14:48.504Z,64.36
2024-04-12T19:17:50.289Z,64.73
2024-04-12T19:20:52.296Z,65.26
2024-04-12T19:23:55.441Z,66.06
2024-04-12T19:27:00.405Z,66.65
2024-04-12T19:30:02.349Z,67.03
2024-04-12T19:33:04.752Z,67.44
2024-04-12T19:36:06.999Z,68.53
2024-04-12T19:39:08.898Z,69.36
2024-04-12T19:42:10.781Z,70.54
2024-04-12T19:45:13.728Z,71.03
2024-04-12T19:48:16.184Z,71.64
2024-04-12T19:51:18.498Z,72.65
2024-04-12T19:54:22.679Z,73.19
2024-04-12T19:57:25.541Z,74.24
2024-04-12T20:00:27.903Z,74.73
2024-04-12T20:03:30.745Z,75.55
2024-04-12T20:06:35.141Z,75.95
2024-04-12T20:09:37.590Z,76.33
2024-04-12T20:12:40.336Z,76.60
2024-04-12T20:15:42.743Z,77.28
2024-04-12T20:18:45.284Z,77.69
2024-04-12T20:21:50.718Z,78.57
2024-04-12T20:24:53.400Z,78.84
2024-04-12T20:27:55.210Z,79.42
2024-04-12T20:31:11.425Z,79.98
2024-04-12T20:34:25.143Z,80.71
2024-04-12T20:37:28.035Z,81.49
2024-04-12T20:40:30.402Z,81.67
2024-04-12T20:43:32.111Z,82.33
2024-04-12T20:46:35.764Z,83.06
2024-04-12T20:49:39.440Z,83.44
2024-04-12T20:52:41.129Z,84.07
2024-04-12T20:55:47.801Z,84.32
2024-04-12T20:58:50.774Z,84.19
2024-04-12T21:01:52.811Z,84.74
2024-04-12T21:04:55.467Z,85.01
2024-04-12T21:07:58.843Z,84.62
2024-04-12T21:11:12.288Z,84.09
2024-04-12T21:14:21.225Z,84.94
2024-04-12T21:17:23.765Z,85.10
2024-04-12T21:20:25.448Z,85.11
2024-04-12T21:23:27.635Z,84.87
2024-04-12T21:26:30.628Z,85.41
2024-04-12T21:29:32.386Z,85.49
2024-04-12T21:32:35.613Z,85.70
2024-04-12T21:35:37.848Z,86.18
2024-04-12T21:38:41.494Z,86.61
2024-04-12T21:41:43.269Z,87.08
2024-04-12T21:44:45.819Z,87.43
2024-04-12T21:47:47.577Z,87.63
2024-04-12T21:50:53.609Z,87.23
2024-04-12T21:53:55.408Z,88.02
2024-04-12T21:56:57.145Z,88.55
2024-04-12T22:00:01.192Z,89.02
2024-04-12T22:03:03.738Z,88.95
2024-04-12T22:06:06.653Z,88.95
2024-04-12T22:09:09.524Z,89.99
2024-04-12T22:12:11.378Z,90.34
2024-04-12T22:15:13.257Z,90.21
2024-04-12T22:18:14.991Z,90.59
2024-04-12T22:21:18.300Z,91.36
2024-04-12T22:24:20.669Z,91.48
2024-04-12T22:27:24.162Z,92.11
2024-04-12T22:30:27.392Z,92.35
2024-04-12T22:33:29.885Z,92.79
2024-04-12T22:36:31.672Z,92.95
2024-04-12T22:39:34.234Z,93.10
2024-04-12T22:42:36.000Z,92.99
2024-04-12T22:45:38.658Z,93.25
2024-04-12T22:48:41.717Z,93.39
2024-04-12T22:51:43.571Z,93.57
2024-04-12T22:54:45.853Z,93.92
2024-04-12T22:57:49.276Z,94.04
2024-04-12T23:00:51.023Z,94.35
2024-04-12T23:03:52.767Z,94.98
2024-04-12T23:06:56.048Z,94.90
2024-04-12T23:09:58.236Z,95.04
2024-04-12T23:13:00.506Z,95.53
2024-04-12T23:16:03.005Z,95.56
2024-04-12T23:19:05.809Z,95.96
2024-04-12T23:22:10.017Z,96.00
2024-04-12T23:25:13.707Z,96.39
2024-04-12T23:28:16.475Z,96.65
2024-04-12T23:31:19.087Z,96.71
2024-04-12T23:34:22.239Z,96.73
2024-04-12T23:37:24.334Z,97.14
2024-04-12T23:40:26.171Z,97.18
2024-04-12T23:43:28.293Z,97.11
2024-04-12T23:46:30.212Z,97.41
2024-04-12T23:49:31.969Z,97.76
2024-04-12T23:52:33.688Z,97.79
2024-04-12T23:55:35.762Z,98.34
2024-04-12T23:58:38.425Z,98.35
